createdAt,value
2022-10-23T00:00:35.632Z,24.65
2022-10-23T00:03:03.387Z,22.23
2022-10-23T00:08:00.301Z,23.55
2022-10-23T00:10:28.673Z,23.65
2022-10-23T00:12:56.642Z,22.85
2022-10-23T00:15:32.551Z,22.25
2022-10-23T00:18:01.894Z,26.08
2022-10-23T00:20:29.687Z,29.85
2022-10-23T00:22:57.493Z,27.63
2022-10-23T00:25:25.251Z,26.55
2022-10-23T00:30:20.648Z,27.85
2022-10-23T00:32:48.437Z,26.02
2022-10-23T00:35:17.629Z,22.50
2022-10-23T00:37:45.438Z,27.13
2022-10-23T00:40:14.200Z,26.95
2022-10-23T00:42:44.363Z,25.42
2022-10-23T00:45:18.088Z,25.10
2022-10-23T00:47:46.503Z,23.48
2022-10-23T00:50:20.631Z,28.27
2022-10-23T00:52:51.364Z,25.00
2022-10-23T00:55:20.659Z,28.30
2022-10-23T00:57:49.944Z,29.00
2022-10-23T01:00:19.995Z,37.20
2022-10-23T01:02:48.119Z,30.25
2022-10-23T01:05:15.911Z,29.00
2022-10-23T01:07:47.337Z,31.35
2022-10-23T01:10:20.143Z,30.13
2022-10-23T01:12:53.715Z,33.95
2022-10-23T01:15:25.065Z,29.17
2022-10-23T01:17:55.290Z,28.33
2022-10-23T01:20:40.851Z,29.17
2022-10-23T01:23:26.093Z,30.63
2022-10-23T01:25:59.993Z,25.88
2022-10-23T01:28:31.168Z,29.90
2022-10-23T01:31:00.112Z,30.95
2022-10-23T01:33:34.570Z,27.90
2022-10-23T01:36:03.880Z,33.60
2022-10-23T01:38:42.889Z,28.05
2022-10-23T01:41:18.460Z,28.40
2022-10-23T01:43:49.229Z,26.08
2022-10-23T01:46:19.390Z,30.08
2022-10-23T01:48:54.063Z,28.50
2022-10-23T01:51:23.216Z,37.00
2022-10-23T01:54:00.506Z,25.80
2022-10-23T01:56:30.437Z,28.92
2022-10-23T01:59:02.279Z,28.83
2022-10-23T02:01:34.765Z,28.33
2022-10-23T02:04:11.466Z,29.10
2022-10-23T02:06:46.782Z,29.98
2022-10-23T02:09:14.718Z,28.88
2022-10-23T02:11:46.052Z,29.45
2022-10-23T02:14:18.676Z,25.90
2022-10-23T02:16:48.526Z,31.33
2022-10-23T02:19:19.037Z,26.83
2022-10-23T02:21:52.658Z,25.15
2022-10-23T02:24:23.428Z,24.90
2022-10-23T02:26:52.843Z,30.75
2022-10-23T02:29:26.875Z,38.15
2022-10-23T02:31:57.336Z,30.75
2022-10-23T02:34:25.993Z,25.50
2022-10-23T02:36:53.890Z,27.80
2022-10-23T02:39:23.945Z,29.80
2022-10-23T02:41:56.175Z,24.75
2022-10-23T02:44:34.136Z,28.90
2022-10-23T02:47:09.798Z,29.95
2022-10-23T02:49:40.302Z,27.90
2022-10-23T02:52:15.999Z,30.00
2022-10-23T02:54:59.212Z,25.25
2022-10-23T02:57:29.881Z,28.90
2022-10-23T03:00:02.942Z,28.27
2022-10-23T03:02:33.615Z,25.88
2022-10-23T03:05:01.802Z,29.35
2022-10-23T03:07:31.919Z,25.70
2022-10-23T03:10:06.144Z,27.92
2022-10-23T03:12:34.547Z,29.98
2022-10-23T03:15:03.815Z,27.40
2022-10-23T03:17:34.833Z,24.15
2022-10-23T03:20:03.484Z,28.00
2022-10-23T03:22:31.390Z,29.27
2022-10-23T03:24:59.257Z,25.83
2022-10-23T03:27:29.863Z,25.48
2022-10-23T03:30:00.478Z,25.48
2022-10-23T03:32:32.288Z,26.70
2022-10-23T03:35:01.128Z,29.98
2022-10-23T03:37:30.013Z,24.45
2022-10-23T03:39:57.788Z,23.33
2022-10-23T03:42:26.411Z,23.88
2022-10-23T03:44:54.180Z,26.23
2022-10-23T03:49:50.980Z,26.45
2022-10-23T03:52:19.579Z,27.45
2022-10-23T03:54:47.428Z,24.85
2022-10-23T03:57:17.596Z,27.67
2022-10-23T03:59:45.413Z,34.10
2022-10-23T04:02:13.674Z,26.50
2022-10-23T04:04:41.831Z,27.25
2022-10-23T04:09:39.024Z,21.15
2022-10-23T04:12:07.512Z,23.20
2022-10-23T04:14:35.729Z,24.73
2022-10-23T04:17:04.520Z,25.27
2022-10-23T04:19:32.359Z,25.85
2022-10-23T04:22:00.199Z,51.28
2022-10-23T04:24:28.145Z,40.67
2022-10-23T04:26:57.302Z,26.08
2022-10-23T04:29:31.510Z,23.88
2022-10-23T04:31:59.492Z,21.88
2022-10-23T04:34:27.452Z,25.33
2022-10-23T04:36:55.484Z,26.50
2022-10-23T04:39:23.840Z,22.55
2022-10-23T04:41:53.969Z,22.80
2022-10-23T04:44:26.685Z,24.77
2022-10-23T04:46:54.619Z,23.15
2022-10-23T04:49:24.654Z,26.35
2022-10-23T04:52:10.956Z,23.08
2022-10-23T04:55:01.875Z,24.17
2022-10-23T04:57:41.506Z,25.75
2022-10-23T05:00:14.045Z,27.23
2022-10-23T05:02:49.686Z,24.23
2022-10-23T05:05:19.842Z,25.65
2022-10-23T05:08:14.229Z,28.20
2022-10-23T05:11:06.006Z,27.50
2022-10-23T05:13:39.301Z,28.30
2022-10-23T05:16:08.483Z,24.08
2022-10-23T05:18:38.581Z,28.83
2022-10-23T05:21:09.537Z,25.50
2022-10-23T05:23:42.566Z,26.10
2022-10-23T05:26:11.631Z,27.08
2022-10-23T05:28:40.230Z,29.48
2022-10-23T05:31:11.128Z,29.90
2022-10-23T05:33:41.278Z,28.85
2022-10-23T05:36:10.221Z,27.00
2022-10-23T05:38:38.097Z,27.35
2022-10-23T05:41:12.956Z,26.92
2022-10-23T05:46:32.782Z,28.35
2022-10-23T05:49:19.066Z,28.25
2022-10-23T05:52:12.733Z,30.25
2022-10-23T05:55:12.538Z,32.28
2022-10-23T05:58:10.018Z,35.27
2022-10-23T06:01:01.047Z,27.85
2022-10-23T06:03:49.735Z,31.88
2022-10-23T06:06:18.267Z,29.05
2022-10-23T06:08:49.379Z,30.35
2022-10-23T06:11:20.167Z,30.30
2022-10-23T06:16:30.393Z,25.80
2022-10-23T06:19:00.303Z,26.67
2022-10-23T06:21:28.406Z,32.47
2022-10-23T06:23:57.006Z,34.63
2022-10-23T06:26:31.284Z,30.48
2022-10-23T06:29:09.714Z,34.40
2022-10-23T06:31:38.819Z,32.78
2022-10-23T06:34:08.612Z,31.23
2022-10-23T06:36:38.026Z,26.70
2022-10-23T06:39:14.695Z,30.35
2022-10-23T06:42:14.787Z,30.67
2022-10-23T06:45:06.281Z,29.17
2022-10-23T06:48:13.017Z,31.15
2022-10-23T06:51:05.110Z,30.70
2022-10-23T06:53:39.894Z,30.27
2022-10-23T06:56:35.228Z,30.15
2022-10-23T06:59:08.693Z,31.77
2022-10-23T07:01:37.645Z,26.55
2022-10-23T07:04:07.106Z,33.40
2022-10-23T07:06:36.356Z,26.90
2022-10-23T07:09:04.225Z,30.95
2022-10-23T07:11:54.766Z,27.92
2022-10-23T07:14:32.177Z,26.77
2022-10-23T07:17:03.214Z,25.88
2022-10-23T07:19:31.115Z,25.70
2022-10-23T07:22:03.990Z,23.33
2022-10-23T07:24:36.964Z,22.48
2022-10-23T07:27:09.470Z,20.98
2022-10-23T07:29:39.823Z,19.13
2022-10-23T07:32:07.809Z,19.70
2022-10-23T07:35:05.745Z,18.65
2022-10-23T07:37:37.140Z,20.73
2022-10-23T07:40:06.459Z,16.10
2022-10-23T07:42:41.141Z,16.55
2022-10-23T07:45:09.915Z,20.20
2022-10-23T07:47:51.217Z,16.42
2022-10-23T07:50:20.560Z,16.23
2022-10-23T07:52:50.623Z,17.02
2022-10-23T07:55:21.699Z,17.15
2022-10-23T07:57:58.604Z,18.30
2022-10-23T08:00:40.009Z,15.07
2022-10-23T08:03:15.140Z,17.20
2022-10-23T08:05:43.066Z,16.55
2022-10-23T08:08:12.497Z,14.55
2022-10-23T08:10:42.915Z,14.45
2022-10-23T08:13:16.047Z,16.85
2022-10-23T08:15:56.795Z,14.15
2022-10-23T08:18:50.828Z,16.13
2022-10-23T08:21:20.189Z,16.00
2022-10-23T08:23:55.170Z,13.85
2022-10-23T08:26:24.628Z,15.55
2022-10-23T08:28:54.016Z,13.10
2022-10-23T08:31:23.621Z,13.93
2022-10-23T08:34:09.187Z,12.25
2022-10-23T08:36:39.518Z,10.50
2022-10-23T08:39:09.338Z,10.77
2022-10-23T08:41:43.170Z,13.43
2022-10-23T08:44:20.036Z,11.40
2022-10-23T08:46:50.927Z,14.23
2022-10-23T08:49:23.903Z,20.00
2022-10-23T08:52:17.761Z,13.82
2022-10-23T08:55:10.234Z,10.52
2022-10-23T08:57:42.750Z,12.38
2022-10-23T09:00:16.517Z,12.45
2022-10-23T09:02:46.230Z,12.23
2022-10-23T09:05:16.262Z,18.42
2022-10-23T09:07:50.198Z,21.98
2022-10-23T09:10:25.305Z,17.63
2022-10-23T09:12:53.242Z,17.95
2022-10-23T09:15:24.120Z,13.18
2022-10-23T09:17:56.279Z,15.25
2022-10-23T09:20:25.468Z,15.65
2022-10-23T09:22:55.260Z,14.20
2022-10-23T09:25:26.522Z,15.05
2022-10-23T09:27:57.450Z,13.82
2022-10-23T09:30:36.982Z,14.68
2022-10-23T09:33:15.122Z,16.88
2022-10-23T09:38:26.674Z,13.15
2022-10-23T09:40:56.122Z,12.23
2022-10-23T09:43:27.538Z,10.55
2022-10-23T09:46:02.787Z,11.10
2022-10-23T09:48:31.602Z,13.45
2022-10-23T09:51:00.301Z,13.73
2022-10-23T09:53:31.934Z,16.15
2022-10-23T09:56:02.768Z,12.07
2022-10-23T09:58:35.667Z,13.45
2022-10-23T10:01:03.846Z,14.77
2022-10-23T10:03:50.166Z,16.88
2022-10-23T10:06:23.283Z,18.70
2022-10-23T10:08:53.040Z,19.88
2022-10-23T10:11:31.255Z,17.70
2022-10-23T10:14:17.528Z,18.77
2022-10-23T10:16:50.609Z,20.35
2022-10-23T10:19:30.693Z,19.45
2022-10-23T10:22:04.817Z,23.00
2022-10-23T10:24:35.889Z,23.85
2022-10-23T10:27:08.824Z,22.63
2022-10-23T10:29:51.744Z,21.13
2022-10-23T10:32:27.426Z,23.02
2022-10-23T10:34:59.875Z,22.17
2022-10-23T10:37:30.770Z,26.02
2022-10-23T10:40:01.211Z,21.95
2022-10-23T10:42:37.081Z,18.30
2022-10-23T10:45:09.887Z,19.70
2022-10-23T10:47:42.901Z,20.83
2022-10-23T10:50:18.399Z,24.42
2022-10-23T10:53:19.496Z,21.83
2022-10-23T10:55:50.689Z,23.40
2022-10-23T10:58:22.439Z,25.35
2022-10-23T11:00:55.950Z,26.33
2022-10-23T11:03:29.411Z,23.65
2022-10-23T11:08:44.385Z,22.92
2022-10-23T11:11:24.278Z,25.98
2022-10-23T11:13:54.038Z,30.02
2022-10-23T11:16:24.032Z,24.92
2022-10-23T11:18:57.052Z,21.80
2022-10-23T11:21:30.295Z,23.33
2022-10-23T11:24:13.604Z,20.80
2022-10-23T11:26:46.975Z,21.05
2022-10-23T11:29:26.553Z,20.48
2022-10-23T11:32:03.037Z,23.70
2022-10-23T11:34:45.723Z,19.85
2022-10-23T11:37:17.756Z,18.13
2022-10-23T11:39:59.303Z,21.80
2022-10-23T11:42:34.473Z,15.50
2022-10-23T11:45:06.127Z,18.75
2022-10-23T11:47:39.621Z,17.20
2022-10-23T11:50:14.957Z,16.58
2022-10-23T11:53:12.576Z,15.27
2022-10-23T11:55:42.136Z,17.60
2022-10-23T11:58:33.889Z,14.57
2022-10-23T12:01:16.505Z,20.25
2022-10-23T12:03:51.567Z,22.63
2022-10-23T12:06:22.864Z,23.95
2022-10-23T12:08:55.567Z,26.58
2022-10-23T12:11:27.920Z,29.75
2022-10-23T12:13:57.711Z,26.42
2022-10-23T12:16:37.863Z,24.67
2022-10-23T12:19:20.445Z,20.90
2022-10-23T12:21:48.326Z,27.95
2022-10-23T12:24:27.951Z,22.83
2022-10-23T12:27:01.779Z,19.10
2022-10-23T12:29:34.001Z,20.35
2022-10-23T12:32:07.416Z,20.77
2022-10-23T12:34:41.302Z,18.92
2022-10-23T12:37:14.057Z,19.45
2022-10-23T12:39:41.950Z,20.63
2022-10-23T12:42:16.724Z,16.67
2022-10-23T12:44:44.603Z,14.95
2022-10-23T12:47:17.078Z,15.98
2022-10-23T12:49:49.497Z,18.05
2022-10-23T12:52:21.032Z,16.02
2022-10-23T12:54:50.823Z,18.50
2022-10-23T12:57:21.218Z,15.48
2022-10-23T12:59:49.578Z,14.35
2022-10-23T13:02:25.573Z,15.88
2022-10-23T13:04:54.734Z,14.45
2022-10-23T13:07:24.470Z,14.32
2022-10-23T13:09:52.602Z,9.77
2022-10-23T13:12:27.256Z,12.48
2022-10-23T13:15:03.701Z,9.98
2022-10-23T13:17:37.076Z,10.25
2022-10-23T13:20:12.282Z,11.35
2022-10-23T13:22:41.755Z,10.10
2022-10-23T13:25:23.511Z,10.32
2022-10-23T13:27:51.618Z,8.98
2022-10-23T13:30:29.236Z,8.98
2022-10-23T13:32:58.622Z,8.82
2022-10-23T13:35:26.969Z,10.80
2022-10-23T13:37:55.754Z,9.88
2022-10-23T13:40:25.224Z,10.95
2022-10-23T13:42:53.945Z,10.25
2022-10-23T13:45:25.007Z,12.60
2022-10-23T13:47:53.211Z,11.10
2022-10-23T13:50:22.570Z,8.20
2022-10-23T13:52:50.630Z,14.57
2022-10-23T13:55:21.243Z,11.05
2022-10-23T13:57:49.037Z,10.07
2022-10-23T14:00:17.618Z,14.55
2022-10-23T14:02:45.696Z,12.85
2022-10-23T14:05:13.989Z,11.73
2022-10-23T14:07:44.054Z,13.18
2022-10-23T14:10:13.871Z,15.93
2022-10-23T14:12:43.345Z,17.38
2022-10-23T14:15:12.289Z,14.00
2022-10-23T14:17:40.121Z,13.85
2022-10-23T14:20:08.776Z,14.55
2022-10-23T14:22:36.576Z,12.63
2022-10-23T14:25:06.149Z,14.77
2022-10-23T14:27:34.089Z,15.13
2022-10-23T14:30:02.496Z,15.30
2022-10-23T14:32:31.484Z,13.32
2022-10-23T14:34:59.431Z,14.32
2022-10-23T14:37:27.275Z,14.02
2022-10-23T14:39:55.039Z,15.13
2022-10-23T14:42:33.851Z,13.05
2022-10-23T14:45:02.613Z,17.88
2022-10-23T14:47:30.915Z,14.13
2022-10-23T14:49:59.915Z,15.88
2022-10-23T14:52:27.783Z,13.70
2022-10-23T14:54:55.682Z,13.45
2022-10-23T14:57:24.955Z,13.52
2022-10-23T14:59:52.855Z,14.13
2022-10-23T15:02:20.747Z,14.35
2022-10-23T15:04:48.660Z,16.05
2022-10-23T15:07:17.060Z,14.40
2022-10-23T15:09:44.932Z,14.82
2022-10-23T15:12:12.848Z,12.35
2022-10-23T15:14:42.584Z,15.75
2022-10-23T15:17:15.449Z,15.15
2022-10-23T15:19:43.835Z,15.60
2022-10-23T15:22:12.098Z,12.45
2022-10-23T15:24:42.621Z,16.10
2022-10-23T15:27:12.999Z,14.23
2022-10-23T15:29:42.847Z,38.72
2022-10-23T15:32:11.693Z,22.50
2022-10-23T15:34:41.928Z,25.15
2022-10-23T15:37:09.997Z,17.35
2022-10-23T15:39:37.957Z,17.60
2022-10-23T15:42:06.630Z,15.07
2022-10-23T15:44:34.998Z,17.10
2022-10-23T15:47:04.299Z,15.25
2022-10-23T15:49:32.711Z,15.35
2022-10-23T15:52:00.566Z,17.48
2022-10-23T15:54:31.902Z,13.13
2022-10-23T15:57:01.226Z,12.57
2022-10-23T15:59:29.726Z,13.43
2022-10-23T16:01:58.695Z,14.90
2022-10-23T16:04:28.736Z,13.68
2022-10-23T16:06:57.432Z,15.50
2022-10-23T16:09:25.640Z,17.00
2022-10-23T16:11:53.543Z,12.95
2022-10-23T16:14:21.336Z,13.77
2022-10-23T16:16:49.194Z,14.43
2022-10-23T16:19:17.196Z,13.20
2022-10-23T16:21:46.367Z,10.98
2022-10-23T16:24:14.212Z,11.52
2022-10-23T16:26:42.623Z,11.55
2022-10-23T16:29:10.665Z,11.13
2022-10-23T16:31:38.712Z,15.02
2022-10-23T16:34:07.219Z,9.82
2022-10-23T16:36:35.296Z,12.02
2022-10-23T16:39:39.962Z,13.68
2022-10-23T16:42:27.847Z,11.05
2022-10-23T16:45:21.926Z,12.70
2022-10-23T16:47:49.863Z,10.68
2022-10-23T16:50:18.598Z,9.90
2022-10-23T16:52:50.964Z,8.63
2022-10-23T16:55:22.646Z,8.27
2022-10-23T16:57:50.394Z,8.23
2022-10-23T17:00:21.967Z,8.85
2022-10-23T17:02:49.857Z,6.65
2022-10-23T17:05:17.758Z,6.25
2022-10-23T17:07:45.802Z,5.65
2022-10-23T17:10:13.869Z,5.50
2022-10-23T17:12:43.026Z,8.82
2022-10-23T17:15:11.605Z,7.10
2022-10-23T17:17:39.392Z,7.60
2022-10-23T17:20:07.648Z,5.88
2022-10-23T17:22:36.588Z,7.90
2022-10-23T17:25:04.509Z,8.40
2022-10-23T17:27:33.386Z,5.72
2022-10-23T17:30:03.004Z,7.07
2022-10-23T17:32:31.505Z,7.68
2022-10-23T17:34:59.550Z,7.80
2022-10-23T17:37:27.297Z,7.25
2022-10-23T17:39:57.121Z,6.25
2022-10-23T17:42:26.798Z,5.55
2022-10-23T17:44:54.698Z,4.15
2022-10-23T17:47:25.552Z,8.55
2022-10-23T17:49:53.401Z,5.35
2022-10-23T17:52:21.434Z,5.70
2022-10-23T17:54:52.652Z,5.68
2022-10-23T17:57:20.473Z,6.30
2022-10-23T17:59:48.615Z,5.88
2022-10-23T18:02:16.577Z,4.85
2022-10-23T18:04:46.154Z,5.43
2022-10-23T18:07:14.650Z,7.15
2022-10-23T18:09:42.735Z,9.68
2022-10-23T18:12:10.550Z,7.22
2022-10-23T18:14:38.642Z,6.88
2022-10-23T18:17:06.383Z,6.70
2022-10-23T18:19:34.288Z,8.73
2022-10-23T18:22:03.703Z,6.68
2022-10-23T18:24:32.132Z,8.15
2022-10-23T18:26:59.943Z,8.15
2022-10-23T18:29:27.690Z,7.63
2022-10-23T18:31:55.597Z,7.70
2022-10-23T18:34:24.426Z,7.70
2022-10-23T18:36:53.618Z,6.88
2022-10-23T18:39:23.728Z,9.55
2022-10-23T18:41:52.190Z,8.50
2022-10-23T18:44:21.849Z,9.35
2022-10-23T18:46:49.973Z,9.23
2022-10-23T18:49:18.529Z,10.55
2022-10-23T18:51:46.865Z,7.78
2022-10-23T18:54:15.703Z,11.30
2022-10-23T18:56:45.647Z,11.38
2022-10-23T18:59:18.434Z,8.85
2022-10-23T19:01:47.026Z,9.55
2022-10-23T19:04:17.724Z,8.35
2022-10-23T19:06:46.723Z,9.88
2022-10-23T19:09:14.940Z,9.48
2022-10-23T19:11:45.782Z,7.88
2022-10-23T19:14:15.380Z,9.95
2022-10-23T19:16:44.786Z,8.25
2022-10-23T19:19:16.604Z,10.85
2022-10-23T19:21:45.411Z,9.52
2022-10-23T19:24:15.254Z,11.45
2022-10-23T19:26:44.863Z,9.45
2022-10-23T19:29:14.889Z,11.15
2022-10-23T19:31:44.863Z,15.50
2022-10-23T19:34:13.388Z,9.75
2022-10-23T19:36:41.244Z,13.75
2022-10-23T19:39:09.103Z,12.15
2022-10-23T19:41:36.980Z,9.45
2022-10-23T19:44:07.383Z,11.45
2022-10-23T19:46:36.341Z,11.82
2022-10-23T19:49:04.287Z,12.52
2022-10-23T19:51:32.179Z,11.95
2022-10-23T19:54:00.362Z,12.90
2022-10-23T19:56:28.343Z,10.85
2022-10-23T19:58:56.252Z,13.00
2022-10-23T20:01:26.234Z,9.63
2022-10-23T20:03:55.488Z,10.75
2022-10-23T20:06:24.721Z,16.05
2022-10-23T20:08:52.699Z,12.55
2022-10-23T20:11:21.586Z,11.20
2022-10-23T20:13:49.638Z,9.98
2022-10-23T20:16:20.391Z,11.52
2022-10-23T20:18:50.245Z,13.13
2022-10-23T20:21:18.576Z,14.25
2022-10-23T20:23:47.105Z,10.63
2022-10-23T20:26:16.644Z,11.02
2022-10-23T20:28:47.493Z,13.88
2022-10-23T20:31:18.867Z,10.57
2022-10-23T20:33:46.801Z,9.63
2022-10-23T20:36:32.873Z,8.48
2022-10-23T20:39:03.379Z,10.95
2022-10-23T20:41:33.282Z,13.43
2022-10-23T20:44:01.549Z,11.35
2022-10-23T20:46:29.434Z,11.00
2022-10-23T20:48:57.712Z,11.32
2022-10-23T20:51:26.068Z,9.93
2022-10-23T20:53:55.451Z,13.05
2022-10-23T20:56:30.035Z,11.02
2022-10-23T20:58:58.518Z,12.73
2022-10-23T21:01:26.942Z,11.68
2022-10-23T21:03:56.209Z,12.05
2022-10-23T21:06:24.754Z,11.57
2022-10-23T21:08:55.431Z,12.27
2022-10-23T21:11:25.007Z,11.32
2022-10-23T21:13:52.986Z,21.67
2022-10-23T21:16:27.611Z,18.23
2022-10-23T21:18:56.484Z,17.30
2022-10-23T21:21:26.174Z,16.17
2022-10-23T21:23:54.739Z,12.98
2022-10-23T21:26:31.675Z,11.88
2022-10-23T21:29:17.453Z,11.85
2022-10-23T21:31:46.622Z,13.40
2022-10-23T21:34:14.518Z,11.43
2022-10-23T21:37:10.815Z,11.02
2022-10-23T21:39:34.386Z,13.88
2022-10-23T21:42:04.026Z,13.95
2022-10-23T21:44:39.258Z,12.13
2022-10-23T21:47:07.104Z,13.65
2022-10-23T21:49:35.107Z,13.25
2022-10-23T21:52:03.122Z,12.48
2022-10-23T21:54:31.065Z,12.65
2022-10-23T21:56:59.015Z,11.15
2022-10-23T21:59:31.527Z,12.43
2022-10-23T22:01:59.827Z,12.93
2022-10-23T22:04:27.782Z,13.80
2022-10-23T22:06:55.663Z,15.45
2022-10-23T22:09:23.930Z,12.95
2022-10-23T22:11:51.917Z,15.32
2022-10-23T22:14:19.863Z,15.32
2022-10-23T22:16:49.767Z,20.02
2022-10-23T22:19:18.076Z,16.95
2022-10-23T22:21:48.376Z,13.63
2022-10-23T22:24:17.540Z,14.15
2022-10-23T22:26:46.477Z,14.25
2022-10-23T22:29:15.343Z,18.63
2022-10-23T22:31:47.298Z,15.30
2022-10-23T22:34:28.795Z,15.18
2022-10-23T22:37:07.676Z,18.20
2022-10-23T22:39:35.644Z,19.88
2022-10-23T22:42:03.454Z,18.23
2022-10-23T22:44:34.860Z,14.57
2022-10-23T22:47:02.648Z,16.08
2022-10-23T22:49:32.465Z,17.85
2022-10-23T22:52:00.225Z,23.05
2022-10-23T22:54:28.122Z,18.02
2022-10-23T22:56:56.369Z,15.63
2022-10-23T22:59:24.175Z,19.05
2022-10-23T23:01:52.211Z,20.83
2022-10-23T23:07:10.501Z,16.45
2022-10-23T23:09:38.928Z,20.92
2022-10-23T23:12:07.055Z,20.15
2022-10-23T23:14:35.063Z,20.30
2022-10-23T23:17:03.735Z,22.55
2022-10-23T23:19:31.598Z,23.40
2022-10-23T23:22:00.510Z,19.63
2022-10-23T23:24:29.759Z,23.45
2022-10-23T23:26:58.123Z,18.02
2022-10-23T23:29:25.951Z,16.55
2022-10-23T23:31:53.787Z,19.75
2022-10-23T23:34:22.103Z,19.55
2022-10-23T23:36:49.853Z,20.80
2022-10-23T23:39:17.688Z,18.63
2022-10-23T23:41:46.851Z,17.60
2022-10-23T23:44:14.591Z,18.35
2022-10-23T23:46:42.402Z,17.20
2022-10-23T23:49:10.215Z,17.83
2022-10-23T23:51:38.252Z,20.05
2022-10-23T23:54:06.250Z,22.27
2022-10-23T23:56:34.038Z,20.67
2022-10-23T23:59:03.860Z,25.50
